sensor_id;sensor_type;location;lat;lon;timestamp;pressure;altitude;pressure_sealevel;temperature;humidity
8585;BME280;7180;52.742;11.420;2023-05-15T00:00:32;100703.72;;;13.05;83.32
8585;BME280;7180;52.742;11.420;2023-05-15T00:02:57;100716.59;;;13.09;83.75
8585;BME280;7180;52.742;11.420;2023-05-15T00:05:22;100713.84;;;13.11;83.89
8585;BME280;7180;52.742;11.420;2023-05-15T00:07:47;100705.88;;;13.12;83.75
8585;BME280;7180;52.742;11.420;2023-05-15T00:10:13;100696.34;;;13.10;84.05
8585;BME280;7180;52.742;11.420;2023-05-15T00:12:38;100693.38;;;13.14;84.02
8585;BME280;7180;52.742;11.420;2023-05-15T00:15:04;100695.09;;;13.15;84.22
8585;BME280;7180;52.742;11.420;2023-05-15T00:17:29;100694.03;;;13.18;84.11
8585;BME280;7180;52.742;11.420;2023-05-15T00:19:54;100679.03;;;13.18;84.01
8585;BME280;7180;52.742;11.420;2023-05-15T00:22:22;100649.69;;;13.23;83.45
8585;BME280;7180;52.742;11.420;2023-05-15T00:24:47;100595.81;;;13.25;82.73
8585;BME280;7180;52.742;11.420;2023-05-15T00:27:12;100549.53;;;13.32;81.97
8585;BME280;7180;52.742;11.420;2023-05-15T00:29:38;100511.63;;;13.33;81.13
8585;BME280;7180;52.742;11.420;2023-05-15T00:32:03;100482.59;;;13.33;80.63
8585;BME280;7180;52.742;11.420;2023-05-15T00:34:28;100466.97;;;13.30;80.17
8585;BME280;7180;52.742;11.420;2023-05-15T00:36:54;100447.22;;;13.23;80.15
8585;BME280;7180;52.742;11.420;2023-05-15T00:39:19;100446.94;;;13.15;80.04
8585;BME280;7180;52.742;11.420;2023-05-15T00:41:45;100479.88;;;13.10;80.35
8585;BME280;7180;52.742;11.420;2023-05-15T00:44:11;100500.59;;;13.03;80.81
8585;BME280;7180;52.742;11.420;2023-05-15T00:46:37;100528.31;;;12.96;81.36
8585;BME280;7180;52.742;11.420;2023-05-15T00:49:04;100560.09;;;12.95;81.63
8585;BME280;7180;52.742;11.420;2023-05-15T00:51:31;100577.00;;;12.92;82.26
8585;BME280;7180;52.742;11.420;2023-05-15T00:53:57;100590.38;;;12.89;82.63
8585;BME280;7180;52.742;11.420;2023-05-15T00:56:24;100601.91;;;12.88;82.89
8585;BME280;7180;52.742;11.420;2023-05-15T00:58:49;100608.97;;;12.88;83.20
8585;BME280;7180;52.742;11.420;2023-05-15T01:01:16;100619.50;;;12.88;83.40
8585;BME280;7180;52.742;11.420;2023-05-15T01:03:42;100619.63;;;12.86;83.20
8585;BME280;7180;52.742;11.420;2023-05-15T01:06:08;100609.41;;;12.82;83.58
8585;BME280;7180;52.742;11.420;2023-05-15T01:08:42;100605.56;;;12.73;83.43
8585;BME280;7180;52.742;11.420;2023-05-15T01:11:08;100599.84;;;12.67;83.66
8585;BME280;7180;52.742;11.420;2023-05-15T01:13:34;100605.41;;;12.62;83.61
8585;BME280;7180;52.742;11.420;2023-05-15T01:15:59;100601.34;;;12.44;83.75
8585;BME280;7180;52.742;11.420;2023-05-15T01:18:25;100634.66;;;12.32;84.84
8585;BME280;7180;52.742;11.420;2023-05-15T01:29:13;100730.09;;;12.11;87.87
8585;BME280;7180;52.742;11.420;2023-05-15T01:31:43;100719.53;;;12.11;88.26
8585;BME280;7180;52.742;11.420;2023-05-15T01:34:13;100714.28;;;12.11;88.54
8585;BME280;7180;52.742;11.420;2023-05-15T01:36:49;100696.00;;;12.08;88.40
8585;BME280;7180;52.742;11.420;2023-05-15T01:39:20;100693.28;;;12.09;88.60
8585;BME280;7180;52.742;11.420;2023-05-15T01:41:54;100685.75;;;12.03;88.60
8585;BME280;7180;52.742;11.420;2023-05-15T01:44:30;100684.72;;;12.06;88.64
8585;BME280;7180;52.742;11.420;2023-05-15T01:46:58;100678.41;;;12.08;88.52
8585;BME280;7180;52.742;11.420;2023-05-15T01:49:26;100669.56;;;12.09;88.69
8585;BME280;7180;52.742;11.420;2023-05-15T01:52:08;100655.44;;;12.10;88.41
8585;BME280;7180;52.742;11.420;2023-05-15T01:54:35;100654.41;;;12.13;88.49
8585;BME280;7180;52.742;11.420;2023-05-15T01:57:01;100643.66;;;12.16;88.20
8585;BME280;7180;52.742;11.420;2023-05-15T01:59:28;100631.03;;;12.21;88.10
8585;BME280;7180;52.742;11.420;2023-05-15T02:01:55;100610.56;;;12.24;87.90
8585;BME280;7180;52.742;11.420;2023-05-15T02:04:21;100607.66;;;12.29;87.73
8585;BME280;7180;52.742;11.420;2023-05-15T02:06:47;100595.41;;;12.28;87.55
8585;BME280;7180;52.742;11.420;2023-05-15T02:09:14;100595.81;;;12.22;87.68
8585;BME280;7180;52.742;11.420;2023-05-15T02:11:40;100611.06;;;12.17;87.78
8585;BME280;7180;52.742;11.420;2023-05-15T02:14:07;100622.03;;;12.11;87.92
8585;BME280;7180;52.742;11.420;2023-05-15T02:16:33;100629.63;;;12.15;87.96
8585;BME280;7180;52.742;11.420;2023-05-15T02:18:59;100602.22;;;12.18;87.46
8585;BME280;7180;52.742;11.420;2023-05-15T02:21:24;100605.66;;;12.06;87.93
8585;BME280;7180;52.742;11.420;2023-05-15T02:23:50;100624.00;;;12.07;88.46
8585;BME280;7180;52.742;11.420;2023-05-15T02:26:29;100639.50;;;12.12;88.51
8585;BME280;7180;52.742;11.420;2023-05-15T02:31:58;100655.50;;;12.23;89.37
8585;BME280;7180;52.742;11.420;2023-05-15T02:34:35;100648.63;;;12.20;89.57
8585;BME280;7180;52.742;11.420;2023-05-15T02:37:08;100659.09;;;12.22;89.78
8585;BME280;7180;52.742;11.420;2023-05-15T02:39:35;100650.59;;;12.17;89.92
8585;BME280;7180;52.742;11.420;2023-05-15T02:42:01;100647.25;;;12.15;90.16
8585;BME280;7180;52.742;11.420;2023-05-15T02:44:27;100647.41;;;12.12;90.30
8585;BME280;7180;52.742;11.420;2023-05-15T02:46:53;100649.88;;;12.15;90.31
8585;BME280;7180;52.742;11.420;2023-05-15T02:49:19;100638.59;;;12.13;90.33
8585;BME280;7180;52.742;11.420;2023-05-15T02:51:46;100629.19;;;12.09;90.29
8585;BME280;7180;52.742;11.420;2023-05-15T02:54:11;100625.03;;;12.05;90.43
8585;BME280;7180;52.742;11.420;2023-05-15T02:56:37;100627.13;;;12.00;90.48
8585;BME280;7180;52.742;11.420;2023-05-15T02:59:02;100618.97;;;11.90;90.69
8585;BME280;7180;52.742;11.420;2023-05-15T03:01:28;100626.00;;;11.90;91.01
8585;BME280;7180;52.742;11.420;2023-05-15T03:03:53;100627.72;;;11.91;91.20
8585;BME280;7180;52.742;11.420;2023-05-15T03:06:18;100631.38;;;11.88;91.53
8585;BME280;7180;52.742;11.420;2023-05-15T03:08:43;100638.72;;;11.83;91.85
8585;BME280;7180;52.742;11.420;2023-05-15T03:11:09;100627.75;;;11.77;91.90
8585;BME280;7180;52.742;11.420;2023-05-15T03:13:34;100633.84;;;11.77;92.16
8585;BME280;7180;52.742;11.420;2023-05-15T03:15:59;100629.41;;;11.78;91.84
8585;BME280;7180;52.742;11.420;2023-05-15T03:18:25;100618.53;;;11.70;91.79
8585;BME280;7180;52.742;11.420;2023-05-15T03:20:51;100614.94;;;11.71;91.81
8585;BME280;7180;52.742;11.420;2023-05-15T03:23:16;100618.53;;;11.70;91.86
8585;BME280;7180;52.742;11.420;2023-05-15T03:25:42;100608.34;;;11.64;92.04
8585;BME280;7180;52.742;11.420;2023-05-15T03:28:07;100606.84;;;11.60;92.03
8585;BME280;7180;52.742;11.420;2023-05-15T03:30:32;100600.25;;;11.52;92.26
8585;BME280;7180;52.742;11.420;2023-05-15T03:32:58;100597.06;;;11.47;92.26
8585;BME280;7180;52.742;11.420;2023-05-15T03:35:23;100592.72;;;11.46;92.24
8585;BME280;7180;52.742;11.420;2023-05-15T03:37:50;100588.41;;;11.45;92.13
8585;BME280;7180;52.742;11.420;2023-05-15T03:40:15;100588.63;;;11.42;92.03
8585;BME280;7180;52.742;11.420;2023-05-15T03:42:40;100586.06;;;11.41;92.23
8585;BME280;7180;52.742;11.420;2023-05-15T03:45:06;100584.56;;;11.37;92.32
8585;BME280;7180;52.742;11.420;2023-05-15T03:47:32;100574.31;;;11.32;92.41
8585;BME280;7180;52.742;11.420;2023-05-15T03:49:57;100581.84;;;11.38;92.29
8585;BME280;7180;52.742;11.420;2023-05-15T03:52:22;100580.06;;;11.39;92.58
8585;BME280;7180;52.742;11.420;2023-05-15T03:54:48;100586.81;;;11.43;92.66
8585;BME280;7180;52.742;11.420;2023-05-15T03:57:14;100576.56;;;11.38;92.37
8585;BME280;7180;52.742;11.420;2023-05-15T03:59:39;100585.03;;;11.43;92.65
8585;BME280;7180;52.742;11.420;2023-05-15T04:02:05;100586.44;;;11.49;93.03
8585;BME280;7180;52.742;11.420;2023-05-15T04:04:30;100595.44;;;11.59;92.96
8585;BME280;7180;52.742;11.420;2023-05-15T04:06:56;100572.41;;;11.63;92.68
8585;BME280;7180;52.742;11.420;2023-05-15T04:09:21;100574.31;;;11.75;92.49
8585;BME280;7180;52.742;11.420;2023-05-15T04:11:46;100566.06;;;11.93;92.31
8585;BME280;7180;52.742;11.420;2023-05-15T04:14:12;100539.03;;;12.04;91.49
8585;BME280;7180;52.742;11.420;2023-05-15T04:16:37;100528.97;;;12.23;91.07
8585;BME280;7180;52.742;11.420;2023-05-15T04:19:02;100501.59;;;12.38;90.89
8585;BME280;7180;52.742;11.420;2023-05-15T04:21:28;100487.47;;;12.51;90.25
8585;BME280;7180;52.742;11.420;2023-05-15T04:23:53;100455.41;;;12.58;89.40
8585;BME280;7180;52.742;11.420;2023-05-15T04:26:18;100452.75;;;12.70;88.95
8585;BME280;7180;52.742;11.420;2023-05-15T04:28:43;100419.31;;;12.83;87.92
8585;BME280;7180;52.742;11.420;2023-05-15T04:31:08;100391.63;;;13.01;87.20
8585;BME280;7180;52.742;11.420;2023-05-15T04:33:34;100371.13;;;13.17;86.33
8585;BME280;7180;52.742;11.420;2023-05-15T04:35:59;100344.59;;;13.42;85.64
8585;BME280;7180;52.742;11.420;2023-05-15T04:38:24;100318.03;;;13.68;84.70
8585;BME280;7180;52.742;11.420;2023-05-15T04:40:50;100324.53;;;14.42;83.99
8585;BME280;7180;52.742;11.420;2023-05-15T04:43:15;100229.63;;;15.34;81.35
8585;BME280;7180;52.742;11.420;2023-05-15T04:45:40;100124.50;;;16.35;78.38
8585;BME280;7180;52.742;11.420;2023-05-15T04:48:05;100009.25;;;17.31;75.19
8585;BME280;7180;52.742;11.420;2023-05-15T04:50:31;99837.66;;;17.74;71.95
8585;BME280;7180;52.742;11.420;2023-05-15T04:52:56;99820.34;;;18.13;70.25
8585;BME280;7180;52.742;11.420;2023-05-15T04:55:21;99734.19;;;18.39;68.56
8585;BME280;7180;52.742;11.420;2023-05-15T04:57:47;99696.25;;;18.79;67.54
8585;BME280;7180;52.742;11.420;2023-05-15T05:00:12;99610.03;;;19.12;65.78
8585;BME280;7180;52.742;11.420;2023-05-15T05:02:38;99547.84;;;19.60;64.15
8585;BME280;7180;52.742;11.420;2023-05-15T05:05:04;99400.56;;;19.81;62.07
8585;BME280;7180;52.742;11.420;2023-05-15T05:07:31;99244.84;;;19.67;60.78
8585;BME280;7180;52.742;11.420;2023-05-15T05:09:57;99258.03;;;19.60;60.77
8585;BME280;7180;52.742;11.420;2023-05-15T05:12:22;99311.56;;;19.82;60.87
8585;BME280;7180;52.742;11.420;2023-05-15T05:14:47;99317.09;;;20.17;60.69
8585;BME280;7180;52.742;11.420;2023-05-15T05:17:13;99213.19;;;20.16;59.02
8585;BME280;7180;52.742;11.420;2023-05-15T05:19:38;99330.84;;;20.29;60.19
8585;BME280;7180;52.742;11.420;2023-05-15T05:22:04;99255.75;;;20.46;59.41
8585;BME280;7180;52.742;11.420;2023-05-15T05:24:30;99111.22;;;20.35;58.04
8585;BME280;7180;52.742;11.420;2023-05-15T05:26:56;99209.03;;;20.72;58.42
8585;BME280;7180;52.742;11.420;2023-05-15T05:29:22;99217.06;;;21.07;58.09
8585;BME280;7180;52.742;11.420;2023-05-15T05:31:48;98998.09;;;20.99;56.26
8585;BME280;7180;52.742;11.420;2023-05-15T05:34:13;98937.88;;;20.27;56.96
8585;BME280;7180;52.742;11.420;2023-05-15T05:36:38;99102.13;;;21.01;57.10
8585;BME280;7180;52.742;11.420;2023-05-15T05:39:03;98969.03;;;21.17;55.64
8585;BME280;7180;52.742;11.420;2023-05-15T05:41:29;99017.06;;;21.66;55.15
8585;BME280;7180;52.742;11.420;2023-05-15T05:43:54;98849.56;;;21.58;53.94
8585;BME280;7180;52.742;11.420;2023-05-15T05:46:20;98936.72;;;21.94;54.31
8585;BME280;7180;52.742;11.420;2023-05-15T05:48:45;98958.66;;;22.43;53.74
8585;BME280;7180;52.742;11.420;2023-05-15T05:51:10;98953.22;;;21.56;55.03
8585;BME280;7180;52.742;11.420;2023-05-15T05:53:35;98909.03;;;22.86;52.24
8585;BME280;7180;52.742;11.420;2023-05-15T05:56:01;98986.94;;;22.65;53.98
8585;BME280;7180;52.742;11.420;2023-05-15T05:58:26;98810.84;;;22.98;51.75
8585;BME280;7180;52.742;11.420;2023-05-15T06:00:52;98896.97;;;23.34;51.99
8585;BME280;7180;52.742;11.420;2023-05-15T06:03:17;98898.59;;;23.48;52.18
8585;BME280;7180;52.742;11.420;2023-05-15T06:05:43;98963.38;;;23.52;52.84
8585;BME280;7180;52.742;11.420;2023-05-15T06:08:08;98898.38;;;23.43;52.55
8585;BME280;7180;52.742;11.420;2023-05-15T06:10:34;98801.25;;;23.41;51.46
8585;BME280;7180;52.742;11.420;2023-05-15T06:12:59;98803.72;;;23.36;51.69
8585;BME280;7180;52.742;11.420;2023-05-15T06:15:25;98907.97;;;23.77;51.62
8585;BME280;7180;52.742;11.420;2023-05-15T06:17:50;98769.72;;;23.93;50.19
8585;BME280;7180;52.742;11.420;2023-05-15T06:20:16;98779.34;;;24.07;50.32
8585;BME280;7180;52.742;11.420;2023-05-15T06:22:42;98676.41;;;23.70;49.66
8585;BME280;7180;52.742;11.420;2023-05-15T06:25:07;98629.56;;;22.79;50.68
8585;BME280;7180;52.742;11.420;2023-05-15T06:27:37;98764.03;;;23.07;51.56
8585;BME280;7180;52.742;11.420;2023-05-15T06:30:03;98858.94;;;22.54;53.12
8585;BME280;7180;52.742;11.420;2023-05-15T06:32:29;98929.97;;;22.17;54.41
8585;BME280;7180;52.742;11.420;2023-05-15T06:34:55;98915.16;;;22.21;54.03
8585;BME280;7180;52.742;11.420;2023-05-15T06:37:20;99075.22;;;21.92;55.71
8585;BME280;7180;52.742;11.420;2023-05-15T06:39:45;99123.97;;;22.62;55.19
8585;BME280;7180;52.742;11.420;2023-05-15T06:42:10;99128.41;;;23.74;53.59
8585;BME280;7180;52.742;11.420;2023-05-15T06:44:36;98992.53;;;23.93;52.44
8585;BME280;7180;52.742;11.420;2023-05-15T06:47:01;98918.53;;;24.10;51.55
8585;BME280;7180;52.742;11.420;2023-05-15T06:49:26;98894.44;;;24.84;49.84
8585;BME280;7180;52.742;11.420;2023-05-15T06:51:52;98704.97;;;24.68;48.42
8585;BME280;7180;52.742;11.420;2023-05-15T06:54:19;98644.47;;;24.95;47.17
8585;BME280;7180;52.742;11.420;2023-05-15T06:56:44;98604.81;;;25.73;46.11
8585;BME280;7180;52.742;11.420;2023-05-15T06:59:09;98732.22;;;25.55;47.66
8585;BME280;7180;52.742;11.420;2023-05-15T07:01:35;98620.00;;;26.25;45.94
8585;BME280;7180;52.742;11.420;2023-05-15T07:04:00;98641.63;;;25.49;47.38
8585;BME280;7180;52.742;11.420;2023-05-15T07:06:25;98599.63;;;26.18;45.68
8585;BME280;7180;52.742;11.420;2023-05-15T07:08:51;98533.53;;;25.64;46.31
8585;BME280;7180;52.742;11.420;2023-05-15T07:11:16;98613.63;;;25.27;47.75
8585;BME280;7180;52.742;11.420;2023-05-15T07:13:42;98532.03;;;25.45;46.67
8585;BME280;7180;52.742;11.420;2023-05-15T07:16:07;98595.19;;;25.65;46.38
8585;BME280;7180;52.742;11.420;2023-05-15T07:18:32;98699.19;;;26.13;47.11
8585;BME280;7180;52.742;11.420;2023-05-15T07:20:58;98574.09;;;27.16;44.08
8585;BME280;7180;52.742;11.420;2023-05-15T07:23:23;98435.81;;;27.04;42.86
8585;BME280;7180;52.742;11.420;2023-05-15T07:25:48;98269.34;;;26.12;43.63
8585;BME280;7180;52.742;11.420;2023-05-15T07:28:13;98395.41;;;25.87;44.52
8585;BME280;7180;52.742;11.420;2023-05-15T07:30:39;98426.66;;;25.88;44.66
8585;BME280;7180;52.742;11.420;2023-05-15T07:33:05;98166.31;;;23.67;46.40
8585;BME280;7180;52.742;11.420;2023-05-15T07:35:30;98449.66;;;23.00;48.82
8585;BME280;7180;52.742;11.420;2023-05-15T07:37:55;98554.19;;;23.31;48.80
8585;BME280;7180;52.742;11.420;2023-05-15T07:40:20;98363.44;;;22.11;48.97
8585;BME280;7180;52.742;11.420;2023-05-15T07:42:46;98741.34;;;22.39;51.06
8585;BME280;7180;52.742;11.420;2023-05-15T07:45:11;98655.75;;;22.07;50.75
8585;BME280;7180;52.742;11.420;2023-05-15T07:47:36;98682.75;;;21.86;50.89
8585;BME280;7180;52.742;11.420;2023-05-15T07:50:02;98764.44;;;22.21;50.70
8585;BME280;7180;52.742;11.420;2023-05-15T07:52:28;98600.22;;;21.83;49.82
8585;BME280;7180;52.742;11.420;2023-05-15T07:54:53;98720.38;;;21.78;50.75
8585;BME280;7180;52.742;11.420;2023-05-15T07:57:18;98662.34;;;21.19;51.37
8585;BME280;7180;52.742;11.420;2023-05-15T07:59:44;98917.56;;;21.90;52.60
8585;BME280;7180;52.742;11.420;2023-05-15T08:02:09;99044.22;;;22.04;53.91
8585;BME280;7180;52.742;11.420;2023-05-15T08:04:34;99034.22;;;22.25;53.16
8585;BME280;7180;52.742;11.420;2023-05-15T08:07:00;98930.06;;;22.70;51.37
8585;BME280;7180;52.742;11.420;2023-05-15T08:09:25;98990.22;;;22.93;51.53
8585;BME280;7180;52.742;11.420;2023-05-15T08:11:50;98717.47;;;22.25;50.20
8585;BME280;7180;52.742;11.420;2023-05-15T08:14:16;98944.63;;;22.41;51.52
8585;BME280;7180;52.742;11.420;2023-05-15T08:16:41;98602.03;;;22.02;49.06
8585;BME280;7180;52.742;11.420;2023-05-15T08:19:06;98605.84;;;22.32;47.99
8585;BME280;7180;52.742;11.420;2023-05-15T08:21:32;98840.78;;;22.95;49.28
8585;BME280;7180;52.742;11.420;2023-05-15T08:23:58;98735.94;;;22.72;49.17
8585;BME280;7180;52.742;11.420;2023-05-15T08:26:24;98685.00;;;22.02;49.99
8585;BME280;7180;52.742;11.420;2023-05-15T08:28:49;98854.22;;;22.04;51.80
8585;BME280;7180;52.742;11.420;2023-05-15T08:31:15;99022.25;;;22.15;53.02
8585;BME280;7180;52.742;11.420;2023-05-15T08:33:40;98786.97;;;21.40;51.77
8585;BME280;7180;52.742;11.420;2023-05-15T08:36:06;98724.72;;;20.92;51.72
8585;BME280;7180;52.742;11.420;2023-05-15T08:38:31;98820.25;;;20.90;52.29
8585;BME280;7180;52.742;11.420;2023-05-15T08:40:57;98754.81;;;20.39;52.40
8585;BME280;7180;52.742;11.420;2023-05-15T08:43:28;98855.66;;;20.71;52.51
8585;BME280;7180;52.742;11.420;2023-05-15T08:45:54;98935.13;;;20.90;52.89
8585;BME280;7180;52.742;11.420;2023-05-15T08:48:21;98888.63;;;21.12;51.71
8585;BME280;7180;52.742;11.420;2023-05-15T08:50:50;98871.25;;;21.29;51.46
8585;BME280;7180;52.742;11.420;2023-05-15T08:53:15;98873.69;;;20.90;52.43
8585;BME280;7180;52.742;11.420;2023-05-15T08:55:41;98934.50;;;20.67;53.34
8585;BME280;7180;52.742;11.420;2023-05-15T08:58:07;98998.97;;;21.06;52.68
8585;BME280;7180;52.742;11.420;2023-05-15T09:00:33;99006.28;;;21.25;52.83
8585;BME280;7180;52.742;11.420;2023-05-15T09:02:59;98809.38;;;20.98;51.28
8585;BME280;7180;52.742;11.420;2023-05-15T09:05:27;98812.06;;;20.98;51.34
8585;BME280;7180;52.742;11.420;2023-05-15T09:07:53;99080.41;;;21.65;52.79
8585;BME280;7180;52.742;11.420;2023-05-15T09:10:19;98848.59;;;21.25;50.93
8585;BME280;7180;52.742;11.420;2023-05-15T09:12:44;98938.88;;;21.71;51.16
8585;BME280;7180;52.742;11.420;2023-05-15T09:15:18;98717.22;;;21.15;50.58
8585;BME280;7180;52.742;11.420;2023-05-15T09:17:47;98983.03;;;21.88;51.63
8585;BME280;7180;52.742;11.420;2023-05-15T09:20:32;98717.22;;;21.15;50.36
8585;BME280;7180;52.742;11.420;2023-05-15T09:23:00;98821.88;;;21.25;50.84
8585;BME280;7180;52.742;11.420;2023-05-15T09:25:42;98650.78;;;21.12;49.57
8585;BME280;7180;52.742;11.420;2023-05-15T09:28:10;98818.09;;;21.60;50.60
8585;BME280;7180;52.742;11.420;2023-05-15T09:30:41;98783.03;;;21.29;50.64
8585;BME280;7180;52.742;11.420;2023-05-15T09:33:07;98793.13;;;20.93;51.40
8585;BME280;7180;52.742;11.420;2023-05-15T09:35:37;98811.72;;;21.01;51.39
8585;BME280;7180;52.742;11.420;2023-05-15T09:38:07;98958.25;;;21.38;52.30
8585;BME280;7180;52.742;11.420;2023-05-15T09:40:33;98967.84;;;20.99;53.01
8585;BME280;7180;52.742;11.420;2023-05-15T09:42:58;98963.91;;;20.95;53.03
8585;BME280;7180;52.742;11.420;2023-05-15T09:45:24;99029.06;;;20.51;54.64
8585;BME280;7180;52.742;11.420;2023-05-15T09:47:51;99064.25;;;20.40;54.66
8585;BME280;7180;52.742;11.420;2023-05-15T09:50:43;99012.31;;;20.85;53.56
8585;BME280;7180;52.742;11.420;2023-05-15T09:53:10;99003.91;;;21.09;53.01
8585;BME280;7180;52.742;11.420;2023-05-15T09:55:36;99215.56;;;21.40;54.44
8585;BME280;7180;52.742;11.420;2023-05-15T09:58:07;99120.34;;;21.67;53.51
8585;BME280;7180;52.742;11.420;2023-05-15T10:00:34;98985.19;;;21.37;52.58
8585;BME280;7180;52.742;11.420;2023-05-15T10:03:01;98823.44;;;21.07;51.53
8585;BME280;7180;52.742;11.420;2023-05-15T10:05:26;99081.25;;;21.38;53.66
8585;BME280;7180;52.742;11.420;2023-05-15T10:07:53;98986.06;;;21.44;52.76
8585;BME280;7180;52.742;11.420;2023-05-15T10:10:19;98756.25;;;21.16;50.78
8585;BME280;7180;52.742;11.420;2023-05-15T10:12:44;98781.34;;;21.15;51.07
8585;BME280;7180;52.742;11.420;2023-05-15T10:15:10;98737.13;;;21.13;50.68
8585;BME280;7180;52.742;11.420;2023-05-15T10:17:36;98785.06;;;21.27;50.65
8585;BME280;7180;52.742;11.420;2023-05-15T10:20:01;98719.91;;;21.28;50.03
8585;BME280;7180;52.742;11.420;2023-05-15T10:22:29;98688.66;;;21.22;49.71
8585;BME280;7180;52.742;11.420;2023-05-15T10:25:08;98769.66;;;21.36;50.38
8585;BME280;7180;52.742;11.420;2023-05-15T10:27:37;98818.72;;;21.62;50.18
8585;BME280;7180;52.742;11.420;2023-05-15T10:30:06;98894.09;;;21.86;50.74
8585;BME280;7180;52.742;11.420;2023-05-15T10:32:38;98671.84;;;21.81;49.00
8585;BME280;7180;52.742;11.420;2023-05-15T10:35:09;98576.38;;;21.61;48.55
8585;BME280;7180;52.742;11.420;2023-05-15T10:37:35;98585.44;;;21.60;48.37
8585;BME280;7180;52.742;11.420;2023-05-15T10:40:00;98521.47;;;21.52;47.88
8585;BME280;7180;52.742;11.420;2023-05-15T10:42:28;98511.97;;;21.63;48.13
8585;BME280;7180;52.742;11.420;2023-05-15T10:44:54;98633.56;;;21.80;48.69
8585;BME280;7180;52.742;11.420;2023-05-15T10:47:24;98743.03;;;21.82;49.74
8585;BME280;7180;52.742;11.420;2023-05-15T10:49:50;98535.22;;;21.62;48.15
8585;BME280;7180;52.742;11.420;2023-05-15T10:52:15;98608.44;;;21.81;48.33
8585;BME280;7180;52.742;11.420;2023-05-15T10:54:41;98448.34;;;21.85;47.06
8585;BME280;7180;52.742;11.420;2023-05-15T10:57:07;98406.78;;;21.89;46.85
8585;BME280;7180;52.742;11.420;2023-05-15T10:59:33;98390.69;;;21.95;46.42
8585;BME280;7180;52.742;11.420;2023-05-15T11:02:24;98622.41;;;22.09;48.58
8585;BME280;7180;52.742;11.420;2023-05-15T11:04:57;98435.69;;;22.05;47.21
8585;BME280;7180;52.742;11.420;2023-05-15T11:07:23;98316.50;;;22.09;45.71
8585;BME280;7180;52.742;11.420;2023-05-15T11:09:49;98432.13;;;22.17;46.76
8585;BME280;7180;52.742;11.420;2023-05-15T11:12:14;98368.19;;;22.03;46.25
8585;BME280;7180;52.742;11.420;2023-05-15T11:14:42;98289.66;;;21.91;46.02
8585;BME280;7180;52.742;11.420;2023-05-15T11:17:09;98223.09;;;22.01;44.94
8585;BME280;7180;52.742;11.420;2023-05-15T11:19:35;98417.84;;;22.30;46.45
8585;BME280;7180;52.742;11.420;2023-05-15T11:24:57;98326.66;;;22.25;45.99
8585;BME280;7180;52.742;11.420;2023-05-15T11:27:31;98270.88;;;22.46;45.27
8585;BME280;7180;52.742;11.420;2023-05-15T11:30:10;98052.41;;;21.91;44.13
8585;BME280;7180;52.742;11.420;2023-05-15T11:35:27;98315.50;;;22.77;44.72
8585;BME280;7180;52.742;11.420;2023-05-15T11:37:54;98190.34;;;22.66;44.11
8585;BME280;7180;52.742;11.420;2023-05-15T11:40:27;98251.59;;;22.38;45.78
8585;BME280;7180;52.742;11.420;2023-05-15T11:43:07;98168.59;;;22.20;44.76
8585;BME280;7180;52.742;11.420;2023-05-15T11:45:40;98478.28;;;22.13;47.90
8585;BME280;7180;52.742;11.420;2023-05-15T11:48:08;98215.56;;;22.16;45.30
8585;BME280;7180;52.742;11.420;2023-05-15T11:50:36;98373.53;;;22.03;47.37
8585;BME280;7180;52.742;11.420;2023-05-15T11:53:03;98173.13;;;21.70;45.83
8585;BME280;7180;52.742;11.420;2023-05-15T11:55:31;98212.25;;;21.64;46.17
8585;BME280;7180;52.742;11.420;2023-05-15T11:57:56;98269.13;;;21.85;46.15
8585;BME280;7180;52.742;11.420;2023-05-15T12:00:21;98151.78;;;21.39;45.67
8585;BME280;7180;52.742;11.420;2023-05-15T12:02:47;98244.75;;;21.30;46.24
8585;BME280;7180;52.742;11.420;2023-05-15T12:05:12;98279.19;;;21.14;46.98
8585;BME280;7180;52.742;11.420;2023-05-15T12:07:40;98525.38;;;21.43;48.69
8585;BME280;7180;52.742;11.420;2023-05-15T12:10:07;98450.59;;;20.91;48.86
8585;BME280;7180;52.742;11.420;2023-05-15T12:12:34;98445.88;;;19.87;50.75
8585;BME280;7180;52.742;11.420;2023-05-15T12:15:00;98579.56;;;19.78;51.22
8585;BME280;7180;52.742;11.420;2023-05-15T12:17:26;98844.06;;;18.87;56.21
8585;BME280;7180;52.742;11.420;2023-05-15T12:19:51;99193.63;;;17.23;62.08
8585;BME280;7180;52.742;11.420;2023-05-15T12:22:17;99600.88;;;16.36;67.35
8585;BME280;7180;52.742;11.420;2023-05-15T12:24:43;99871.69;;;15.87;71.36
8585;BME280;7180;52.742;11.420;2023-05-15T12:27:09;99982.78;;;15.99;72.43
8585;BME280;7180;52.742;11.420;2023-05-15T12:29:35;99983.47;;;16.20;72.85
8585;BME280;7180;52.742;11.420;2023-05-15T12:32:01;99932.94;;;15.84;72.14
8585;BME280;7180;52.742;11.420;2023-05-15T12:34:27;99982.22;;;15.96;72.93
8585;BME280;7180;52.742;11.420;2023-05-15T12:36:52;99956.09;;;15.91;72.31
8585;BME280;7180;52.742;11.420;2023-05-15T12:39:18;99955.97;;;16.31;71.84
8585;BME280;7180;52.742;11.420;2023-05-15T12:41:43;100055.84;;;16.61;73.34
8585;BME280;7180;52.742;11.420;2023-05-15T12:44:19;99939.53;;;16.83;71.34
8585;BME280;7180;52.742;11.420;2023-05-15T12:46:45;100050.28;;;17.19;72.87
8585;BME280;7180;52.742;11.420;2023-05-15T12:49:10;100016.66;;;17.37;72.11
8585;BME280;7180;52.742;11.420;2023-05-15T12:51:43;99962.44;;;17.57;71.46
8585;BME280;7180;52.742;11.420;2023-05-15T12:54:38;99898.50;;;17.77;69.92
8585;BME280;7180;52.742;11.420;2023-05-15T12:57:06;99898.03;;;17.99;69.62
8585;BME280;7180;52.742;11.420;2023-05-15T12:59:32;99772.19;;;18.24;67.83
8585;BME280;7180;52.742;11.420;2023-05-15T13:01:57;99799.69;;;18.58;67.78
8585;BME280;7180;52.742;11.420;2023-05-15T13:04:23;99716.69;;;18.63;66.69
8585;BME280;7180;52.742;11.420;2023-05-15T13:06:48;99705.97;;;19.04;65.84
8585;BME280;7180;52.742;11.420;2023-05-15T13:09:20;99640.03;;;19.06;64.85
8585;BME280;7180;52.742;11.420;2023-05-15T13:11:47;99735.94;;;19.06;66.01
8585;BME280;7180;52.742;11.420;2023-05-15T13:14:15;99709.69;;;19.51;65.16
8585;BME280;7180;52.742;11.420;2023-05-15T13:16:42;99343.06;;;19.55;60.74
8585;BME280;7180;52.742;11.420;2023-05-15T13:19:07;99314.16;;;19.67;60.02
8585;BME280;7180;52.742;11.420;2023-05-15T13:21:33;99011.75;;;19.61;56.54